This is the latest recevied weather packets stored in our database for station/object BAGASKAR. If no packets are shown the sender has not sent any weather packets the latest 1 day(s).
| Time | Temp. | Humidity | Pressure | Rain* | Wind** | Luminosity | Snow |
|---|---|---|---|---|---|---|---|
| 1836274170 | 15.56° C | 100% | 1008.9 hPa | - | 10.28 m/s, 236° | - | - |
| 1778036841 | 3.33° C | 95% | 1011 hPa | - | 4.02 m/s, 274° | - | - |
| 1778035641 | 2.78° C | 100% | 1010.8 hPa | - | 4.47 m/s, 268° | - | - |
| 1778034441 | 2.78° C | 100% | 1010.7 hPa | - | 4.02 m/s, 272° | - | - |
| 1778033241 | 3.33° C | 93% | 1010.5 hPa | - | 4.02 m/s, 293° | - | - |
| 1778032041 | 3.33° C | 94% | 1010.3 hPa | - | 4.02 m/s, 293° | - | - |
| 1778030840 | 3.33° C | 92% | 1010.2 hPa | - | 4.02 m/s, 292° | - | - |
| 1778029641 | 3.33° C | 92% | 1010 hPa | - | 4.02 m/s, 294° | - | - |
| 1778028440 | 3.33° C | 95% | 1009.9 hPa | - | 3.58 m/s, 290° | - | - |
| 1778027240 | 3.33° C | 91% | 1009.8 hPa | - | 4.02 m/s, 292° | - | - |
| 1778026040 | 3.33° C | 90% | 1009.7 hPa | - | 4.02 m/s, 299° | - | - |
| 1778024840 | 3.33° C | 87% | 1009.6 hPa | - | 4.47 m/s, 296° | - | - |
| 1778023641 | 3.33° C | 86% | 1009.5 hPa | - | 4.02 m/s, 300° | - | - |
| 1778022440 | 3.89° C | 86% | 1009.4 hPa | - | 4.02 m/s, 300° | - | - |
| 1778021240 | 3.89° C | 83% | 1009.2 hPa | - | 5.36 m/s, 293° | - | - |
| 1778020040 | 3.89° C | 82% | 1009.2 hPa | - | 5.81 m/s, 296° | - | - |
| 1778018840 | 3.89° C | 79% | 1009.1 hPa | - | 5.36 m/s, 299° | - | - |
| 1778017640 | 4.44° C | 78% | 1009 hPa | - | 5.36 m/s, 300° | - | - |
| 1778016440 | 4.44° C | 79% | 1008.9 hPa | - | 5.36 m/s, 289° | - | - |
| 1778015239 | 4.44° C | 75% | 1008.8 hPa | - | 4.92 m/s, 288° | - | - |
| 1778014040 | 5° C | 71% | 1008.6 hPa | - | 4.92 m/s, 292° | - | - |
| 1778012840 | 5° C | 67% | 1008.4 hPa | - | 5.81 m/s, 292° | - | - |
| 1778011639 | 5° C | 67% | 1008.2 hPa | - | 5.36 m/s, 289° | - | - |
| 1778010439 | 5.56° C | 68% | 1008.1 hPa | - | 4.47 m/s, 285° | - | - |
| 1778009240 | 5.56° C | 65% | 1008.1 hPa | - | 4.92 m/s, 293° | - | - |
* Rain since midnight (hover to see other rain measurements)
** Current wind speed in m/s (hover to see current wind gust speed)